createdAt,value
2018-01-14T00:02:21.548Z,-0.30
2018-01-14T00:04:50.083Z,-0.40
2018-01-14T00:07:18.670Z,-0.30
2018-01-14T00:09:47.216Z,-0.10
2018-01-14T00:12:14.763Z,-0.10
2018-01-14T00:14:44.314Z,-0.20
2018-01-14T00:17:12.694Z,-0.20
2018-01-14T00:19:40.238Z,-0.30
2018-01-14T00:22:07.832Z,-0.40
2018-01-14T00:24:36.795Z,-0.40
2018-01-14T00:27:05.203Z,-0.40
2018-01-14T00:29:33.432Z,-0.30
2018-01-14T00:32:01.003Z,-0.10
2018-01-14T00:34:29.510Z,-0.20
2018-01-14T00:36:57.678Z,-0.20
2018-01-14T00:39:29.070Z,-0.30
2018-01-14T00:41:57.723Z,-0.30
2018-01-14T00:44:25.263Z,-0.30
2018-01-14T00:46:53.514Z,-0.40
2018-01-14T00:49:21.041Z,-0.30
2018-01-14T00:51:49.473Z,-0.30
2018-01-14T00:54:17.002Z,-0.40
2018-01-14T00:56:45.620Z,-0.40
2018-01-14T00:59:13.931Z,-0.30
2018-01-14T01:01:42.940Z,-0.30
2018-01-14T01:04:10.474Z,-0.40
2018-01-14T01:06:39.739Z,-0.40
2018-01-14T01:09:07.296Z,-0.30
2018-01-14T01:11:35.333Z,-0.30
2018-01-14T01:14:02.870Z,-0.20
2018-01-14T01:16:30.454Z,-0.30
2018-01-14T01:18:58.025Z,-0.30
2018-01-14T01:21:26.405Z,-0.30
2018-01-14T01:23:54.634Z,-0.30
2018-01-14T01:26:22.750Z,-0.40
2018-01-14T01:28:51.100Z,-0.60
2018-01-14T01:31:18.636Z,-0.60
2018-01-14T01:33:46.218Z,-0.60
2018-01-14T01:36:14.308Z,-0.60
2018-01-14T01:38:41.891Z,-0.50
2018-01-14T01:41:09.428Z,-0.30
2018-01-14T01:43:38.590Z,-0.40
2018-01-14T01:46:06.144Z,-0.40
2018-01-14T01:48:34.872Z,-0.40
2018-01-14T01:51:02.742Z,-0.50
2018-01-14T01:53:31.531Z,-0.60
2018-01-14T01:56:00.086Z,-0.60
2018-01-14T01:58:28.643Z,-0.60
2018-01-14T02:00:57.437Z,-0.40
2018-01-14T02:03:25.030Z,-0.40
2018-01-14T02:05:53.913Z,-0.40
2018-01-14T02:08:22.321Z,-0.30
2018-01-14T02:10:53.481Z,-0.30
2018-01-14T02:13:21.964Z,-0.30
2018-01-14T02:15:51.102Z,-0.30
2018-01-14T02:18:18.674Z,-0.30
2018-01-14T02:20:47.079Z,-0.40
2018-01-14T02:23:15.440Z,-0.40
2018-01-14T02:25:43.523Z,-0.40
2018-01-14T02:28:11.109Z,-0.40
2018-01-14T02:30:40.058Z,-0.30
2018-01-14T02:33:08.215Z,-0.30
2018-01-14T02:35:37.242Z,-0.40
2018-01-14T02:38:06.046Z,-0.40
2018-01-14T02:40:33.578Z,-0.50
2018-01-14T02:43:02.543Z,-0.50
2018-01-14T02:45:31.083Z,-0.50
2018-01-14T02:47:58.661Z,-0.40
2018-01-14T02:50:27.094Z,-0.50
2018-01-14T02:52:56.264Z,-0.50
2018-01-14T02:55:24.012Z,-0.40
2018-01-14T02:57:51.612Z,-0.50
2018-01-14T03:00:20.247Z,-0.60
2018-01-14T03:02:48.486Z,-0.70
2018-01-14T03:05:16.019Z,-0.70
2018-01-14T03:07:45.043Z,-0.60
2018-01-14T03:10:15.562Z,-0.70
2018-01-14T03:12:43.158Z,-0.70
2018-01-14T03:15:10.708Z,-0.50
2018-01-14T03:17:38.904Z,-0.40
2018-01-14T03:20:07.159Z,-0.50
2018-01-14T03:22:35.496Z,-0.50
2018-01-14T03:25:03.978Z,-0.50
2018-01-14T03:27:32.282Z,-0.60
2018-01-14T03:29:59.831Z,-0.60
2018-01-14T03:32:27.412Z,-0.60
2018-01-14T03:34:54.954Z,-0.70
2018-01-14T03:40:01.569Z,-0.50
2018-01-14T03:42:29.154Z,-0.50
2018-01-14T03:44:59.691Z,-0.30
2018-01-14T03:47:32.259Z,-0.40
2018-01-14T03:49:59.853Z,-0.40
2018-01-14T03:52:27.415Z,-0.40
2018-01-14T03:54:55.857Z,-0.40
2018-01-14T03:57:24.008Z,-0.50
2018-01-14T03:59:53.265Z,-0.40
2018-01-14T04:02:21.561Z,-0.40
2018-01-14T04:04:49.910Z,-0.60
2018-01-14T04:07:18.247Z,-0.70
2018-01-14T04:09:45.826Z,-0.70
2018-01-14T04:12:14.223Z,-0.70
2018-01-14T04:14:43.347Z,-0.70
2018-01-14T04:17:10.929Z,-0.50
2018-01-14T04:19:39.652Z,-0.50
2018-01-14T04:22:07.974Z,-0.50
2018-01-14T04:24:36.442Z,-0.50
2018-01-14T04:27:04.744Z,-0.60
2018-01-14T04:29:32.323Z,-0.50
2018-01-14T04:32:00.730Z,-0.60
2018-01-14T04:34:29.008Z,-0.60
2018-01-14T04:36:56.582Z,-0.60
2018-01-14T04:39:24.962Z,-0.70
2018-01-14T04:41:53.998Z,-0.70
2018-01-14T04:44:22.256Z,-0.70
2018-01-14T04:46:51.392Z,-0.70
2018-01-14T04:49:18.930Z,-0.60
2018-01-14T04:51:48.031Z,-0.70
2018-01-14T04:54:16.351Z,-0.70
2018-01-14T04:56:43.925Z,-0.70
2018-01-14T04:59:12.471Z,-0.70
2018-01-14T05:01:40.057Z,-0.80
2018-01-14T05:04:07.603Z,-0.70
2018-01-14T05:06:35.938Z,-0.70
2018-01-14T05:09:05.167Z,-0.80
2018-01-14T05:11:32.750Z,-0.90
2018-01-14T05:14:00.284Z,-0.90
2018-01-14T05:16:28.624Z,-1.00
2018-01-14T05:18:56.164Z,-1.00
2018-01-14T05:21:24.306Z,-1.00
2018-01-14T05:23:51.840Z,-0.90
2018-01-14T05:26:19.422Z,-0.90
2018-01-14T05:28:46.967Z,-0.90
2018-01-14T05:31:15.314Z,-0.90
2018-01-14T05:33:42.854Z,-1.00
2018-01-14T05:36:10.429Z,-0.80
2018-01-14T05:38:38.895Z,-0.90
2018-01-14T05:41:07.227Z,-0.70
2018-01-14T05:43:34.761Z,-0.80
2018-01-14T05:46:03.106Z,-0.80
2018-01-14T05:48:31.706Z,-0.80
2018-01-14T05:50:59.281Z,-0.80
2018-01-14T05:53:28.586Z,-0.80
2018-01-14T05:55:57.565Z,-0.70
2018-01-14T05:58:25.103Z,-0.70
2018-01-14T06:00:58.155Z,-0.70
2018-01-14T06:03:29.476Z,-0.70
2018-01-14T06:05:58.594Z,-1.00
2018-01-14T06:08:26.175Z,-1.00
2018-01-14T06:10:55.134Z,-0.90
2018-01-14T06:13:22.715Z,-1.00
2018-01-14T06:15:52.727Z,-1.00
2018-01-14T06:18:20.912Z,-1.10
2018-01-14T06:20:49.294Z,-1.00
2018-01-14T06:23:16.866Z,-0.90
2018-01-14T06:25:46.219Z,-0.90
2018-01-14T06:28:14.364Z,-1.00
2018-01-14T06:30:41.990Z,-1.00
2018-01-14T06:33:11.107Z,-0.90
2018-01-14T06:35:39.417Z,-0.90
2018-01-14T06:38:07.859Z,-0.90
2018-01-14T06:40:36.426Z,-0.90
2018-01-14T06:43:04.822Z,-0.90
2018-01-14T06:45:32.372Z,-0.90
2018-01-14T06:48:00.799Z,-0.90
2018-01-14T06:50:29.227Z,-0.80
2018-01-14T06:52:56.809Z,-0.90
2018-01-14T06:55:25.947Z,-1.00
2018-01-14T06:57:54.876Z,-1.00
2018-01-14T07:00:22.411Z,-1.00
2018-01-14T07:02:49.985Z,-0.90
2018-01-14T07:05:18.318Z,-1.10
2018-01-14T07:07:46.511Z,-1.20
2018-01-14T07:10:15.063Z,-1.20
2018-01-14T07:12:43.162Z,-1.20
2018-01-14T07:15:10.739Z,-1.10
2018-01-14T07:17:38.602Z,-1.10
2018-01-14T07:20:06.182Z,-1.00
2018-01-14T07:22:33.728Z,-0.90
2018-01-14T07:25:03.666Z,-1.10
2018-01-14T07:27:31.979Z,-1.00
2018-01-14T07:29:59.560Z,-1.00
2018-01-14T07:32:27.107Z,-1.00
2018-01-14T07:34:55.310Z,-1.00
2018-01-14T07:37:22.922Z,-1.00
2018-01-14T07:39:51.339Z,-1.10
2018-01-14T07:42:19.832Z,-1.10
2018-01-14T07:44:48.254Z,-1.20
2018-01-14T07:47:16.612Z,-1.00
2018-01-14T07:49:45.862Z,-1.00
2018-01-14T07:52:13.858Z,-0.90
2018-01-14T07:54:42.343Z,-0.80
2018-01-14T07:57:10.764Z,-0.90
2018-01-14T07:59:39.018Z,-1.00
2018-01-14T08:02:06.594Z,-0.90
2018-01-14T08:04:34.236Z,-0.70
2018-01-14T08:07:03.606Z,-0.70
2018-01-14T08:09:31.159Z,-0.70
2018-01-14T08:11:58.757Z,-0.70
2018-01-14T08:14:27.027Z,-0.80
2018-01-14T08:16:55.481Z,-0.80
2018-01-14T08:19:23.871Z,-0.70
2018-01-14T08:21:52.430Z,-0.60
2018-01-14T08:24:20.011Z,-0.60
2018-01-14T08:26:47.567Z,-0.60
2018-01-14T08:29:16.993Z,-0.60
2018-01-14T08:31:46.099Z,-0.60
2018-01-14T08:34:14.609Z,-0.50
2018-01-14T08:36:42.152Z,-0.40
2018-01-14T08:39:09.846Z,-0.40
2018-01-14T08:41:38.219Z,-0.60
2018-01-14T08:44:05.811Z,-0.60
2018-01-14T08:46:33.426Z,-0.60
2018-01-14T08:49:01.007Z,-0.50
2018-01-14T08:51:28.557Z,-0.30
2018-01-14T08:53:57.065Z,-0.40
2018-01-14T08:56:25.405Z,-0.20
2018-01-14T08:58:52.982Z,-0.20
2018-01-14T09:01:26.254Z,-0.20
2018-01-14T09:03:54.602Z,-0.10
2018-01-14T09:06:22.140Z,-0.10
2018-01-14T09:08:50.641Z,0.10
2018-01-14T09:11:18.534Z,0.10
2018-01-14T09:13:46.133Z,0.10
2018-01-14T09:16:14.599Z,0.10
2018-01-14T09:18:43.487Z,0.20
2018-01-14T09:21:11.096Z,0.20
2018-01-14T09:23:38.667Z,0.20
2018-01-14T09:26:06.205Z,0.20
2018-01-14T09:28:34.736Z,0.30
2018-01-14T09:31:04.153Z,0.30
2018-01-14T09:33:32.731Z,0.50
2018-01-14T09:36:01.034Z,0.60
2018-01-14T09:38:29.199Z,0.80
2018-01-14T09:40:57.560Z,0.80
2018-01-14T09:43:25.910Z,0.80
2018-01-14T09:45:54.255Z,0.80
2018-01-14T09:48:23.306Z,0.90
2018-01-14T09:50:51.697Z,0.90
2018-01-14T09:53:20.362Z,0.80
2018-01-14T09:55:48.783Z,0.90
2018-01-14T09:58:16.322Z,0.90
2018-01-14T10:00:45.947Z,1.00
2018-01-14T10:03:14.251Z,1.00
2018-01-14T10:05:41.882Z,1.00
2018-01-14T10:08:10.155Z,1.00
2018-01-14T10:10:38.168Z,1.00
2018-01-14T10:13:06.600Z,1.00
2018-01-14T10:15:37.158Z,1.00
2018-01-14T10:18:05.495Z,1.10
2018-01-14T10:20:33.534Z,1.20
2018-01-14T10:23:02.868Z,1.30
2018-01-14T10:25:33.936Z,1.30
2018-01-14T10:28:02.095Z,1.30
2018-01-14T10:30:29.633Z,1.30
2018-01-14T10:32:57.945Z,1.60
2018-01-14T10:35:25.527Z,1.50
2018-01-14T10:37:53.066Z,1.60
2018-01-14T10:40:23.611Z,1.60
2018-01-14T10:42:52.930Z,1.70
2018-01-14T10:45:20.559Z,1.70
2018-01-14T10:47:48.094Z,1.70
2018-01-14T10:50:16.559Z,1.70
2018-01-14T10:52:44.868Z,1.90
2018-01-14T10:55:12.454Z,1.80
2018-01-14T10:57:40.003Z,1.80
2018-01-14T11:00:10.895Z,1.90
2018-01-14T11:02:40.205Z,1.90
2018-01-14T11:05:09.392Z,1.90
2018-01-14T11:07:38.106Z,2.00
2018-01-14T11:10:05.674Z,2.10
2018-01-14T11:12:35.550Z,2.00
2018-01-14T11:15:03.139Z,2.10
2018-01-14T11:17:32.171Z,2.10
2018-01-14T11:20:00.545Z,2.10
2018-01-14T11:22:29.718Z,2.20
2018-01-14T11:24:57.310Z,2.20
2018-01-14T11:27:25.708Z,2.30
2018-01-14T11:30:02.727Z,2.40
2018-01-14T11:32:31.027Z,2.50
2018-01-14T11:34:59.288Z,2.50
2018-01-14T11:37:28.270Z,2.50
2018-01-14T11:39:56.781Z,2.60
2018-01-14T11:42:26.498Z,2.70
2018-01-14T11:44:54.034Z,2.70
2018-01-14T11:47:22.291Z,2.70
2018-01-14T11:49:49.827Z,2.60
2018-01-14T11:52:17.406Z,2.60
2018-01-14T11:54:45.894Z,2.70
2018-01-14T11:57:14.979Z,2.80
2018-01-14T11:59:43.472Z,2.80
2018-01-14T12:02:11.042Z,2.90
2018-01-14T12:04:38.636Z,2.90
2018-01-14T12:07:07.151Z,2.80
2018-01-14T12:09:34.688Z,2.90
2018-01-14T12:12:02.810Z,3.00
2018-01-14T12:14:30.344Z,3.00
2018-01-14T12:16:58.731Z,3.00
2018-01-14T12:19:27.133Z,3.00
2018-01-14T12:21:54.976Z,3.00
2018-01-14T12:24:24.048Z,3.00
2018-01-14T12:26:52.489Z,3.00
2018-01-14T12:29:20.948Z,3.10
2018-01-14T12:31:48.558Z,3.10
2018-01-14T12:37:17.440Z,3.10
2018-01-14T12:39:44.968Z,3.10
2018-01-14T12:42:13.553Z,3.20
2018-01-14T12:44:42.442Z,3.20
2018-01-14T12:47:10.648Z,3.20
2018-01-14T12:49:38.966Z,3.20
2018-01-14T12:52:07.357Z,3.20
2018-01-14T12:54:35.887Z,3.30
2018-01-14T12:57:04.316Z,3.30
2018-01-14T12:59:33.179Z,3.40
2018-01-14T13:02:00.792Z,3.40
2018-01-14T13:04:29.118Z,3.50
2018-01-14T13:06:57.615Z,3.50
2018-01-14T13:09:25.178Z,3.40
2018-01-14T13:11:53.440Z,3.40
2018-01-14T13:14:21.010Z,3.40
2018-01-14T13:16:49.297Z,3.50
2018-01-14T13:19:17.687Z,3.50
2018-01-14T13:21:46.972Z,3.50
2018-01-14T13:24:14.543Z,3.50
2018-01-14T13:26:42.075Z,3.50
2018-01-14T13:29:09.651Z,3.60
2018-01-14T13:31:37.181Z,3.60
2018-01-14T13:34:04.750Z,3.70
2018-01-14T13:36:35.226Z,3.80
2018-01-14T13:39:03.879Z,3.80
2018-01-14T13:41:32.389Z,3.70
2018-01-14T13:44:00.918Z,3.70
2018-01-14T13:46:29.667Z,3.60
2018-01-14T13:48:57.236Z,3.40
2018-01-14T13:51:24.773Z,3.30
2018-01-14T13:53:53.502Z,3.30
2018-01-14T13:56:21.022Z,3.30
2018-01-14T13:58:48.606Z,3.20
2018-01-14T14:01:17.965Z,3.00
2018-01-14T14:03:45.532Z,3.00
2018-01-14T14:06:13.061Z,2.90
2018-01-14T14:08:42.600Z,2.70
2018-01-14T14:11:10.130Z,2.70
2018-01-14T14:13:38.490Z,2.90
2018-01-14T14:16:06.983Z,2.90
2018-01-14T14:18:35.395Z,2.80
2018-01-14T14:21:02.919Z,2.70
2018-01-14T14:23:30.536Z,2.60
2018-01-14T14:26:00.572Z,2.60
2018-01-14T14:28:28.713Z,2.60
2018-01-14T14:30:56.270Z,2.60
2018-01-14T14:33:24.607Z,2.40
2018-01-14T14:35:52.149Z,2.40
2018-01-14T14:38:19.722Z,2.40
2018-01-14T14:40:47.254Z,2.30
2018-01-14T14:43:16.015Z,2.20
2018-01-14T14:45:44.442Z,2.20
2018-01-14T14:48:12.900Z,2.20
2018-01-14T14:50:40.428Z,2.10
2018-01-14T14:53:09.163Z,2.10
2018-01-14T14:55:36.764Z,2.10
2018-01-14T14:58:05.271Z,2.00
2018-01-14T15:00:33.625Z,2.00
2018-01-14T15:03:01.959Z,2.00
2018-01-14T15:05:30.446Z,1.90
2018-01-14T15:07:58.855Z,1.90
2018-01-14T15:10:26.441Z,1.90
2018-01-14T15:12:55.729Z,1.90
2018-01-14T15:15:23.259Z,1.90
2018-01-14T15:17:51.783Z,1.80
2018-01-14T15:20:19.311Z,1.80
2018-01-14T15:22:48.508Z,1.90
2018-01-14T15:25:16.042Z,1.80
2018-01-14T15:27:44.156Z,2.00
2018-01-14T15:30:11.735Z,1.90
2018-01-14T15:32:40.272Z,1.80
2018-01-14T15:35:07.855Z,1.70
2018-01-14T15:37:36.631Z,1.70
2018-01-14T15:40:06.073Z,1.60
2018-01-14T15:42:34.351Z,1.60
2018-01-14T15:45:04.872Z,1.60
2018-01-14T15:47:34.160Z,1.40
2018-01-14T15:50:02.697Z,1.40
2018-01-14T15:52:30.291Z,1.30
2018-01-14T15:54:59.204Z,1.30
2018-01-14T15:57:26.772Z,1.30
2018-01-14T15:59:54.582Z,1.30
2018-01-14T16:02:22.170Z,1.30
2018-01-14T16:04:50.481Z,1.20
2018-01-14T16:07:18.856Z,1.20
2018-01-14T16:09:46.397Z,1.20
2018-01-14T16:12:14.741Z,1.10
2018-01-14T16:14:42.278Z,1.00
2018-01-14T16:17:09.850Z,0.90
2018-01-14T16:19:37.384Z,0.90
2018-01-14T16:22:04.963Z,0.80
2018-01-14T16:24:32.490Z,0.90
2018-01-14T16:27:00.109Z,0.90
2018-01-14T16:29:28.616Z,0.80
2018-01-14T16:31:57.798Z,0.80
2018-01-14T16:34:25.560Z,0.80
2018-01-14T16:36:53.932Z,0.80
2018-01-14T16:39:21.505Z,0.80
2018-01-14T16:41:50.353Z,0.90
2018-01-14T16:44:18.645Z,0.90
2018-01-14T16:46:46.939Z,0.80
2018-01-14T16:49:15.778Z,0.70
2018-01-14T16:51:43.394Z,0.90
2018-01-14T16:54:11.854Z,0.80
2018-01-14T16:56:39.427Z,0.60
2018-01-14T16:59:06.973Z,0.60
2018-01-14T17:01:35.169Z,0.60
2018-01-14T17:04:03.610Z,0.60
2018-01-14T17:06:32.564Z,0.50
2018-01-14T17:09:00.678Z,0.50
2018-01-14T17:11:29.060Z,0.40
2018-01-14T17:13:56.624Z,0.40
2018-01-14T17:16:25.316Z,0.40
2018-01-14T17:18:52.869Z,0.40
2018-01-14T17:21:21.447Z,0.30
2018-01-14T17:23:49.512Z,0.30
2018-01-14T17:26:18.804Z,0.50
2018-01-14T17:28:46.347Z,0.40
2018-01-14T17:31:15.905Z,0.50
2018-01-14T17:33:43.470Z,0.50
2018-01-14T17:36:11.021Z,0.50
2018-01-14T17:38:42.509Z,0.40
2018-01-14T17:41:10.092Z,0.30
2018-01-14T17:43:39.456Z,0.40
2018-01-14T17:46:08.011Z,0.40
2018-01-14T17:48:36.417Z,0.30
2018-01-14T17:51:04.543Z,0.30
2018-01-14T17:53:32.164Z,0.30
2018-01-14T17:56:01.687Z,0.10
2018-01-14T17:58:30.326Z,0.10
2018-01-14T18:01:00.001Z,0.20
2018-01-14T18:03:28.338Z,0.10
2018-01-14T18:05:55.926Z,0.00
2018-01-14T18:08:23.733Z,0.10
2018-01-14T18:10:51.335Z,0.10
2018-01-14T18:13:19.714Z,0.20
2018-01-14T18:15:48.684Z,0.20
2018-01-14T18:18:16.257Z,0.20
2018-01-14T18:20:44.650Z,0.00
2018-01-14T18:23:12.456Z,0.00
2018-01-14T18:25:41.864Z,-0.10
2018-01-14T18:28:09.685Z,0.00
2018-01-14T18:30:38.370Z,0.10
2018-01-14T18:33:08.574Z,0.20
2018-01-14T18:35:36.242Z,0.20
2018-01-14T18:38:04.628Z,0.20
2018-01-14T18:40:33.050Z,0.30
2018-01-14T18:43:00.666Z,0.10
2018-01-14T18:45:40.111Z,0.10
2018-01-14T18:48:08.566Z,0.10
2018-01-14T18:50:36.859Z,-0.10
2018-01-14T18:53:05.268Z,-0.20
2018-01-14T18:55:33.584Z,-0.10
2018-01-14T18:58:01.845Z,-0.20
2018-01-14T19:00:30.252Z,-0.20
2018-01-14T19:02:59.429Z,-0.20
2018-01-14T19:05:27.522Z,-0.20
2018-01-14T19:07:55.705Z,0.10
2018-01-14T19:10:24.234Z,0.00
2018-01-14T19:12:52.386Z,0.00
2018-01-14T19:15:20.009Z,0.10
2018-01-14T19:17:47.563Z,0.00
2018-01-14T19:20:17.128Z,0.00
2018-01-14T19:22:47.371Z,-0.20
2018-01-14T19:25:15.754Z,-0.20
2018-01-14T19:27:43.334Z,-0.30
2018-01-14T19:30:10.935Z,-0.40
2018-01-14T19:32:40.235Z,-0.20
2018-01-14T19:35:07.833Z,-0.20
2018-01-14T19:37:36.298Z,-0.30
2018-01-14T19:40:03.917Z,-0.30
2018-01-14T19:42:31.541Z,-0.40
2018-01-14T19:44:59.122Z,-0.50
2018-01-14T19:47:26.759Z,-0.40
2018-01-14T19:49:55.080Z,-0.40
2018-01-14T19:52:22.722Z,-0.30
2018-01-14T19:54:50.308Z,-0.20
2018-01-14T19:57:17.889Z,-0.10
2018-01-14T19:59:46.646Z,-0.10
2018-01-14T20:02:16.223Z,-0.20
2018-01-14T20:04:43.838Z,-0.20
2018-01-14T20:07:12.262Z,-0.20
2018-01-14T20:09:40.414Z,-0.20
2018-01-14T20:12:08.879Z,-0.40
2018-01-14T20:14:37.499Z,-0.40
2018-01-14T20:17:05.109Z,-0.40
2018-01-14T20:19:32.757Z,-0.60
2018-01-14T20:22:01.588Z,-0.50
2018-01-14T20:24:29.986Z,-0.50
2018-01-14T20:26:58.402Z,-0.50
2018-01-14T20:29:25.985Z,-0.40
2018-01-14T20:31:53.845Z,-0.50
2018-01-14T20:34:21.463Z,-0.60
2018-01-14T20:36:49.813Z,-0.40
2018-01-14T20:39:17.456Z,-0.40
2018-01-14T20:41:45.279Z,-0.40
2018-01-14T20:44:19.536Z,-0.50
2018-01-14T20:46:47.116Z,-0.40
2018-01-14T20:49:14.713Z,-0.40
2018-01-14T20:51:42.298Z,-0.50
2018-01-14T20:54:09.943Z,-0.50
2018-01-14T20:56:38.299Z,-0.50
2018-01-14T20:59:06.911Z,-0.60
2018-01-14T21:01:34.460Z,-0.60
2018-01-14T21:04:02.078Z,-0.60
2018-01-14T21:06:30.462Z,-0.30
2018-01-14T21:08:58.110Z,-0.30
2018-01-14T21:11:25.695Z,-0.30
2018-01-14T21:13:53.321Z,-0.20
2018-01-14T21:16:21.861Z,-0.40
2018-01-14T21:18:50.061Z,-0.50
2018-01-14T21:21:17.653Z,-0.60
2018-01-14T21:23:46.016Z,-0.60
2018-01-14T21:26:14.430Z,-0.60
2018-01-14T21:28:42.081Z,-0.50
2018-01-14T21:31:09.766Z,-0.60
2018-01-14T21:33:38.302Z,-0.60
2018-01-14T21:36:05.914Z,-0.40
2018-01-14T21:38:33.992Z,-0.40
2018-01-14T21:41:02.347Z,-0.30
2018-01-14T21:43:29.996Z,-0.30
2018-01-14T21:45:58.599Z,-0.30
2018-01-14T21:48:26.238Z,-0.30
2018-01-14T21:50:55.014Z,-0.40
2018-01-14T21:53:23.445Z,-0.50
2018-01-14T21:55:51.029Z,-0.50
2018-01-14T21:58:18.654Z,-0.60
2018-01-14T22:00:46.232Z,-0.50
2018-01-14T22:03:16.678Z,-0.50
2018-01-14T22:05:44.291Z,-0.50
2018-01-14T22:08:12.734Z,-0.60
2018-01-14T22:10:40.306Z,-0.50
2018-01-14T22:13:07.988Z,-0.50
2018-01-14T22:15:35.613Z,-0.60
2018-01-14T22:18:03.151Z,-0.70
2018-01-14T22:20:31.575Z,-0.70
2018-01-14T22:23:02.338Z,-0.60
2018-01-14T22:25:32.700Z,-0.70
2018-01-14T22:28:01.405Z,-0.70
2018-01-14T22:30:28.983Z,-0.80
2018-01-14T22:32:56.784Z,-0.70
2018-01-14T22:35:25.324Z,-0.50
2018-01-14T22:38:03.212Z,-0.60
2018-01-14T22:40:31.638Z,-0.60
2018-01-14T22:43:00.920Z,-0.70
2018-01-14T22:45:30.205Z,-0.70
2018-01-14T22:47:59.446Z,-0.70
2018-01-14T22:50:27.037Z,-0.80
2018-01-14T22:52:56.167Z,-0.90
2018-01-14T22:55:24.280Z,-0.90
2018-01-14T22:57:51.935Z,-0.90
2018-01-14T23:00:20.371Z,-0.70
2018-01-14T23:03:14.925Z,-0.60
2018-01-14T23:05:46.166Z,-0.60
2018-01-14T23:08:15.627Z,-0.60
2018-01-14T23:10:43.298Z,-0.60
2018-01-14T23:13:11.753Z,-0.70
2018-01-14T23:15:46.286Z,-0.90
2018-01-14T23:24:15.166Z,-1.00
2018-01-14T23:26:42.853Z,-1.10
2018-01-14T23:32:05.775Z,-1.10
2018-01-14T23:34:34.389Z,-1.10
2018-01-14T23:37:03.163Z,-1.10
2018-01-14T23:39:30.919Z,-1.00
2018-01-14T23:42:17.953Z,-1.10
2018-01-14T23:44:56.016Z,-1.00
2018-01-14T23:50:25.854Z,-1.00
2018-01-14T23:53:13.018Z,-1.00
2018-01-14T23:58:46.909Z,-1.10
